createdAt,value
2023-02-15T00:00:04.008Z,0.00
2023-02-15T00:05:04.739Z,0.00
2023-02-15T00:10:05.481Z,0.00
2023-02-15T00:15:06.299Z,0.00
2023-02-15T00:20:07.037Z,0.00
2023-02-15T00:25:07.734Z,0.00
2023-02-15T00:30:08.494Z,0.00
2023-02-15T00:35:09.250Z,0.00
2023-02-15T00:40:10.026Z,0.00
2023-02-15T00:45:10.713Z,0.00
2023-02-15T00:50:11.435Z,0.00
2023-02-15T00:55:12.168Z,0.00
2023-02-15T01:00:12.859Z,0.00
2023-02-15T01:05:13.615Z,0.00
2023-02-15T01:10:14.324Z,0.00
2023-02-15T01:15:15.175Z,0.00
2023-02-15T01:20:15.871Z,0.00
2023-02-15T01:25:16.589Z,0.00
2023-02-15T01:30:18.536Z,0.00
2023-02-15T01:35:18.223Z,0.00
2023-02-15T01:40:18.958Z,0.00
2023-02-15T01:45:19.652Z,0.00
2023-02-15T01:50:20.395Z,0.00
2023-02-15T01:55:21.081Z,0.00
2023-02-15T02:00:21.878Z,0.00
2023-02-15T02:05:22.624Z,0.00
2023-02-15T02:10:23.368Z,0.00
2023-02-15T02:15:24.057Z,0.00
2023-02-15T02:20:24.764Z,0.00
2023-02-15T02:25:25.512Z,0.00
2023-02-15T02:30:26.365Z,0.00
2023-02-15T02:35:27.115Z,0.00
2023-02-15T02:40:27.826Z,0.00
2023-02-15T02:45:28.561Z,0.00
2023-02-15T02:50:29.246Z,0.00
2023-02-15T02:55:29.981Z,0.00
2023-02-15T03:00:30.700Z,0.00
2023-02-15T03:05:31.410Z,0.00
2023-02-15T03:10:32.218Z,0.00
2023-02-15T03:15:32.957Z,0.00
2023-02-15T03:20:33.652Z,0.00
2023-02-15T03:25:34.372Z,0.00
2023-02-15T03:30:35.098Z,0.00
2023-02-15T03:35:35.809Z,0.00
2023-02-15T03:40:36.537Z,0.00
2023-02-15T03:45:37.291Z,0.00
2023-02-15T03:50:37.985Z,0.00
2023-02-15T03:55:38.703Z,0.00
2023-02-15T04:00:39.459Z,0.00
2023-02-15T04:05:40.146Z,0.00
2023-02-15T04:10:40.872Z,0.00
2023-02-15T04:15:41.627Z,0.00
2023-02-15T04:20:42.332Z,0.00
2023-02-15T04:25:43.083Z,0.00
2023-02-15T04:30:43.885Z,0.00
2023-02-15T04:35:44.626Z,0.00
2023-02-15T04:40:45.343Z,0.00
2023-02-15T04:45:46.209Z,0.00
2023-02-15T04:50:46.988Z,0.00
2023-02-15T04:55:47.722Z,0.00
2023-02-15T05:00:48.595Z,0.00
2023-02-15T05:05:49.274Z,0.00
2023-02-15T05:10:50.006Z,0.00
2023-02-15T05:15:50.734Z,0.00
2023-02-15T05:20:51.485Z,0.00
2023-02-15T05:25:52.196Z,0.00
2023-02-15T05:30:53.130Z,0.00
2023-02-15T05:35:53.891Z,0.00
2023-02-15T05:40:54.655Z,0.00
2023-02-15T05:45:55.443Z,0.00
2023-02-15T05:50:56.155Z,0.00
2023-02-15T05:55:56.838Z,1.00
2023-02-15T06:00:58.607Z,6.00
2023-02-15T06:05:58.268Z,2.00
2023-02-15T06:11:06.020Z,4.00
2023-02-15T06:16:00.016Z,8.00
2023-02-15T06:21:00.350Z,25.00
2023-02-15T06:26:01.512Z,50.00
2023-02-15T06:31:01.971Z,77.00
2023-02-15T06:36:02.964Z,96.00
2023-02-15T06:41:03.302Z,167.00
2023-02-15T06:46:04.527Z,181.00
2023-02-15T06:51:04.868Z,251.00
2023-02-15T06:56:05.539Z,260.00
2023-02-15T07:01:06.264Z,331.00
2023-02-15T07:06:06.914Z,296.00
2023-02-15T07:11:07.594Z,500.00
2023-02-15T07:16:08.266Z,559.00
2023-02-15T07:21:08.955Z,574.00
2023-02-15T07:26:09.600Z,516.00
2023-02-15T07:31:10.336Z,739.00
2023-02-15T07:36:10.971Z,649.00
2023-02-15T07:41:11.670Z,791.00
2023-02-15T07:46:12.392Z,727.00
2023-02-15T07:51:13.041Z,870.00
2023-02-15T07:56:13.729Z,870.00
2023-02-15T08:01:14.432Z,974.00
2023-02-15T08:06:15.076Z,1029.00
2023-02-15T08:11:15.794Z,1263.00
2023-02-15T08:16:16.624Z,1088.00
2023-02-15T08:21:17.267Z,1266.00
2023-02-15T08:26:17.929Z,1104.00
2023-02-15T08:31:18.706Z,1135.00
2023-02-15T08:36:19.379Z,1271.00
2023-02-15T08:41:20.157Z,1323.00
2023-02-15T08:46:20.781Z,1551.00
2023-02-15T08:51:21.449Z,1541.00
2023-02-15T08:56:23.260Z,1854.00
2023-02-15T09:01:22.958Z,2137.00
2023-02-15T09:06:23.604Z,2173.00
2023-02-15T09:11:24.288Z,2387.00
2023-02-15T09:16:25.129Z,2195.00
2023-02-15T09:21:25.782Z,2258.00
2023-02-15T09:26:26.460Z,2716.00
2023-02-15T09:31:27.305Z,3145.00
2023-02-15T09:36:28.040Z,2888.00
2023-02-15T09:41:28.682Z,3254.00
2023-02-15T09:46:29.347Z,3042.00
2023-02-15T09:51:30.026Z,3132.00
2023-02-15T09:56:30.741Z,4397.00
2023-02-15T10:01:31.486Z,4058.00
2023-02-15T10:06:32.165Z,3981.00
2023-02-15T10:11:32.865Z,3337.00
2023-02-15T10:16:33.562Z,4181.00
2023-02-15T10:21:34.250Z,4208.00
2023-02-15T10:26:34.914Z,4271.00
2023-02-15T10:31:35.742Z,4183.00
2023-02-15T10:36:36.425Z,4177.00
2023-02-15T10:41:37.072Z,4385.00
2023-02-15T10:46:37.841Z,4213.00
2023-02-15T10:51:38.554Z,4438.00
2023-02-15T10:56:39.268Z,4560.00
2023-02-15T11:01:40.005Z,4128.00
2023-02-15T11:06:40.648Z,4220.00
2023-02-15T11:11:41.313Z,4543.00
2023-02-15T11:16:42.134Z,4498.00
2023-02-15T11:21:42.755Z,4577.00
2023-02-15T11:26:43.442Z,4544.00
2023-02-15T11:31:44.204Z,4541.00
2023-02-15T11:36:44.972Z,4407.00
2023-02-15T11:41:45.639Z,4418.00
2023-02-15T11:46:46.375Z,4480.00
2023-02-15T11:51:47.020Z,4429.00
2023-02-15T11:56:47.717Z,4463.00
2023-02-15T12:01:48.368Z,4375.00
2023-02-15T12:06:49.049Z,4336.00
2023-02-15T12:11:49.704Z,4390.00
2023-02-15T12:16:50.409Z,4303.00
2023-02-15T12:21:51.061Z,4308.00
2023-02-15T12:26:51.736Z,4343.00
2023-02-15T12:31:52.622Z,4518.00
2023-02-15T12:36:53.352Z,4031.00
2023-02-15T12:41:54.001Z,4051.00
2023-02-15T12:46:54.806Z,2863.00
2023-02-15T12:51:55.523Z,3919.00
2023-02-15T12:56:56.224Z,3775.00
2023-02-15T13:01:56.941Z,4125.00
2023-02-15T13:06:57.567Z,4445.00
2023-02-15T13:11:58.238Z,4522.00
2023-02-15T13:16:58.938Z,4007.00
2023-02-15T13:21:59.601Z,2971.00
2023-02-15T13:27:14.387Z,3888.00
2023-02-15T13:32:02.052Z,3224.00
2023-02-15T13:37:01.281Z,2955.00
2023-02-15T13:42:01.986Z,3516.00
2023-02-15T13:47:02.653Z,3360.00
2023-02-15T13:52:03.379Z,2604.00
2023-02-15T13:57:11.048Z,3160.00
2023-02-15T14:02:04.708Z,2912.00
2023-02-15T14:07:05.451Z,2605.00
2023-02-15T14:12:06.152Z,2205.00
2023-02-15T14:17:07.716Z,2068.00
2023-02-15T14:22:07.509Z,1857.00
2023-02-15T14:27:08.174Z,2246.00
2023-02-15T14:32:09.079Z,2377.00
2023-02-15T14:37:09.752Z,2040.00
2023-02-15T14:42:10.456Z,1837.00
2023-02-15T14:47:11.143Z,1639.00
2023-02-15T14:52:11.888Z,1452.00
2023-02-15T14:57:12.551Z,1469.00
2023-02-15T15:02:13.219Z,1341.00
2023-02-15T15:07:13.890Z,1267.00
2023-02-15T15:12:14.586Z,1181.00
2023-02-15T15:17:15.250Z,1073.00
2023-02-15T15:22:15.952Z,1027.00
2023-02-15T15:27:16.642Z,977.00
2023-02-15T15:32:17.599Z,868.00
2023-02-15T15:37:18.270Z,747.00
2023-02-15T15:42:19.036Z,630.00
2023-02-15T15:47:19.733Z,533.00
2023-02-15T15:52:20.497Z,444.00
2023-02-15T15:57:21.109Z,356.00
2023-02-15T16:02:21.847Z,266.00
2023-02-15T16:07:22.580Z,188.00
2023-02-15T16:12:23.871Z,132.00
2023-02-15T16:17:24.057Z,90.00
2023-02-15T16:22:24.836Z,60.00
2023-02-15T16:27:25.510Z,36.00
2023-02-15T16:32:26.231Z,23.00
2023-02-15T16:37:26.879Z,11.00
2023-02-15T16:42:27.644Z,4.00
2023-02-15T16:47:28.335Z,2.00
2023-02-15T16:52:29.060Z,1.00
2023-02-15T16:57:29.776Z,0.00
2023-02-15T17:02:53.253Z,0.00
2023-02-15T17:07:32.164Z,0.00
2023-02-15T17:12:31.957Z,0.00
2023-02-15T17:17:32.706Z,0.00
2023-02-15T17:22:33.464Z,0.00
2023-02-15T17:27:34.230Z,0.00
2023-02-15T17:32:35.278Z,0.00
2023-02-15T17:37:35.967Z,0.00
2023-02-15T17:42:36.811Z,0.00
2023-02-15T17:47:37.518Z,0.00
2023-02-15T17:52:38.274Z,0.00
2023-02-15T17:57:39.173Z,0.00
2023-02-15T18:02:39.868Z,0.00
2023-02-15T18:07:40.621Z,0.00
2023-02-15T18:12:41.424Z,0.00
2023-02-15T18:17:42.113Z,0.00
2023-02-15T18:22:42.845Z,0.00
2023-02-15T18:27:43.716Z,0.00
2023-02-15T18:32:44.529Z,0.00
2023-02-15T18:37:45.330Z,1.00
2023-02-15T18:42:46.053Z,0.00
2023-02-15T18:47:46.789Z,0.00
2023-02-15T18:52:47.582Z,0.00
2023-02-15T18:57:48.340Z,0.00
2023-02-15T19:02:49.299Z,0.00
2023-02-15T19:07:49.989Z,0.00
2023-02-15T19:12:50.737Z,0.00
2023-02-15T19:17:51.525Z,0.00
2023-02-15T19:22:52.301Z,0.00
2023-02-15T19:27:53.033Z,0.00
2023-02-15T19:32:53.773Z,0.00
2023-02-15T19:37:54.517Z,0.00
2023-02-15T19:42:55.355Z,0.00
2023-02-15T19:47:56.147Z,0.00
2023-02-15T19:52:56.885Z,0.00
2023-02-15T19:57:57.729Z,0.00
2023-02-15T20:02:58.513Z,0.00
2023-02-15T20:07:59.258Z,0.00
2023-02-15T20:13:00.057Z,0.00
2023-02-15T20:18:00.757Z,0.00
2023-02-15T20:23:01.540Z,0.00
2023-02-15T20:28:03.351Z,0.00
2023-02-15T20:33:03.059Z,0.00
2023-02-15T20:38:03.800Z,0.00
2023-02-15T20:43:05.123Z,0.00
2023-02-15T20:48:05.405Z,0.00
2023-02-15T20:53:06.107Z,0.00
2023-02-15T20:58:06.862Z,0.00
2023-02-15T21:03:07.622Z,0.00
2023-02-15T21:08:08.341Z,0.00
2023-02-15T21:13:09.098Z,0.00
2023-02-15T21:18:09.859Z,0.00
2023-02-15T21:23:10.580Z,0.00
2023-02-15T21:28:11.301Z,0.00
2023-02-15T21:33:12.133Z,0.00
2023-02-15T21:38:12.831Z,0.00
2023-02-15T21:43:13.561Z,0.00
2023-02-15T21:48:14.282Z,0.00
2023-02-15T21:53:15.100Z,0.00
2023-02-15T21:58:15.816Z,0.00
2023-02-15T22:03:17.608Z,0.00
2023-02-15T22:08:17.318Z,0.00
2023-02-15T22:13:18.056Z,0.00
2023-02-15T22:18:18.754Z,0.00
2023-02-15T22:23:19.476Z,0.00
2023-02-15T22:28:20.200Z,0.00
2023-02-15T22:33:27.973Z,0.00
2023-02-15T22:38:21.724Z,0.00
2023-02-15T22:43:22.442Z,0.00
2023-02-15T22:48:23.168Z,0.00
2023-02-15T22:53:23.955Z,0.00
2023-02-15T22:58:24.639Z,0.00
2023-02-15T23:03:25.364Z,0.00
2023-02-15T23:08:26.077Z,0.00
2023-02-15T23:13:26.833Z,0.00
2023-02-15T23:18:27.524Z,0.00
2023-02-15T23:23:28.234Z,0.00
2023-02-15T23:28:28.990Z,0.00
2023-02-15T23:33:29.670Z,0.00
2023-02-15T23:38:30.371Z,0.00
2023-02-15T23:43:31.088Z,0.00
2023-02-15T23:48:31.815Z,0.00
2023-02-15T23:53:32.534Z,0.00
2023-02-15T23:58:33.297Z,0.00
